Englewood, New Jersey
Current Conditions -  °F | °C
As of 3:51 AM on Friday 24 Oct 2014 (Local Time) from KTEB Reporting Station
Broken Clouds Broken Clouds  
Wind Chill: 51°   Ceiling: 5000
Heat Index: 51°   Visibility: 10mi
Dew Point: 42°   Wind: 5mph
Humidity: 71%   Direction: 310°NW
Pressure: 29.79"   Gusts: NA
Location:  40.9°N, 73.97°W
Report Text: KTEB 240751Z 31004KT 10SM BKN050 11/06 A2979 RMK AO2 SLP086 T01060056
Loading
Personal Weather Stations






























Interactive Weather Map
Tropical Storm Tracking
New forecast layout! Learn more

10-Day Weather Forecast

Advertisements
Track Severe Weather on mobile